www.hirschberg-wetter.de
Wetterdaten: aktuell Dienstag, 18.06.2019 19:00
Datum Zeit Temperatur Luftfeuchte Luftdruck Niederschlag Wind Windrichtung Windrichtung Sonnenschein Helligkeit Niederschlag Taupunkt Windchill
18.06.2019 19:00 26,4 C 37 % 1014 hPa 0,0 l/m 5,0 km/h (1 Bft) SO 140 53 min 21,6 klux 0 min 10,5 C 26,4 C
18.06.2019 18:00 28,1 C 34 % 1015 hPa 0,0 l/m 3,6 km/h (1 Bft) S-SO 150 56 min 57,5 klux 0 min 10,7 C 28,1 C
18.06.2019 17:00 26,3 C 38 % 1015 hPa 0,0 l/m 6,5 km/h (2 Bft) S-SW 200 34 min 79,6 klux 0 min 10,8 C 26,3 C
18.06.2019 16:00 26,9 C 39 % 1015 hPa 0,0 l/m 12,6 km/h (3 Bft) O-SO 110 42 min 97,9 klux 0 min 11,8 C 26,9 C
18.06.2019 15:00 26,6 C 39 % 1016 hPa 0,0 l/m 17,6 km/h (3 Bft) O-SO 120 60 min 118 klux 0 min 11,5 C 26,6 C
18.06.2019 14:00 25,3 C 42 % 1017 hPa 0,0 l/m 6,8 km/h (2 Bft) S-SW 200 47 min 110 klux 0 min 11,5 C 25,3 C
18.06.2019 13:00 25,2 C 43 % 1017 hPa 0,0 l/m 20,9 km/h (4 Bft) SO 140 58 min 114 klux 0 min 11,7 C 25,2 C
18.06.2019 12:00 24,0 C 48 % 1017 hPa 0,0 l/m 7,9 km/h (2 Bft) S-SO 165 36 min 126 klux 0 min 12,3 C 24,0 C
18.06.2019 11:00 22,9 C 56 % 1018 hPa 0,0 l/m 19,8 km/h (3 Bft) S-SO 160 54 min 124 klux 0 min 13,6 C 22,9 C
18.06.2019 10:00 22,4 C 60 % 1018 hPa 0,0 l/m 19,8 km/h (3 Bft) O 90 60 min 94,5 klux 0 min 14,2 C 22,4 C
18.06.2019 09:00 20,8 C 66 % 1018 hPa 0,0 l/m 16,6 km/h (3 Bft) S-SO 160 60 min 67,7 klux 0 min 14,2 C 20,8 C
18.06.2019 08:00 17,7 C 75 % 1019 hPa 0,0 l/m 6,5 km/h (2 Bft) SO 140 60 min 44,1 klux 0 min 13,2 C 17,7 C
18.06.2019 07:00 13,4 C 86 % 1019 hPa 0,0 l/m 2,2 km/h (1 Bft) SO 140 28 min 23,5 klux 0 min 11,1 C 13,4 C
18.06.2019 06:00 11,0 C 94 % 1019 hPa 0,0 l/m 1,4 km/h (1 Bft) N 0 0 min 5,65 klux 0 min 10,1 C 11,0 C
18.06.2019 05:00 10,0 C 97 % 1019 hPa 0,0 l/m 2,2 km/h (1 Bft) NO 55 0 min 711 lux 0 min 9,5 C 10,0 C
18.06.2019 04:00 10,8 C 96 % 1019 hPa 0,0 l/m 1,4 km/h (1 Bft) N 0 0 min 0 lux 0 min 10,2 C 10,8 C
18.06.2019 03:00 11,3 C 96 % 1019 hPa 0,0 l/m 1,8 km/h (1 Bft) S-SW 195 0 min 0 lux 0 min 10,7 C 11,3 C
18.06.2019 02:00 12,2 C 92 % 1020 hPa 0,0 l/m 3,6 km/h (1 Bft) N 0 0 min 0 lux 0 min 10,9 C 12,2 C
18.06.2019 01:00 13,2 C 90 % 1020 hPa 0,0 l/m 1,4 km/h (1 Bft) N-NO 25 0 min 0 lux 0 min 11,6 C 13,2 C
18.06.2019 00:01 14,0 C 88 % 1020 hPa 0,0 l/m 4,0 km/h (1 Bft) S 190 0 min 0 lux 0 min 12,0 C 14,0 C
_ Min-Zeit 05:18 14:37 18:08 - 00:22 - - - - - 05:18 05:18
Minimum _ 9,7 C 34 % 1014 hPa - 0,0 km/h (0 Bft) - - - - - 9,1 C 9,7 C
_ Max-Zeit 17:59 05:24 00:01 00:01 10:06 - - 06:33 11:24 00:01 08:54 17:59
Maximum _ 28,3 C 98 % 1020 hPa 0,0 l/m 31,7 km/h
S-SO (5 Bft)
- - 1 min 150 klux 0 min 15,0 C 28,3 C
Durchschnitt _ 19,5 C 66 % 1017 hPa #0,0 l/m 8,5 km/h (2 Bft) S-SO - #10:48 h 50,4 klux #0 min. 11,7 C 19,5 C
Jens Knrnschild